Pillsbury, ND

3:24 PM CST on December 19, 2014 (GMT -0600)
Hector International | Change Station
CLOSE
Current Station
Airport
Location: Fargo,
Elevation: 899 ft
Nearby Weather Stations

Elev 899 ft 46.91 °N, 96.81 °W | Updated 9 minutes ago

Overcast
Overcast
32 °F
Feels Like 23 °F
N
12
Wind Variable Wind from SSE

Today
High -- | Low -- °F
--% Chance of Precip.
Yesterday
High -- | Low -- °F
Precip. -- in
8:13 AM 4:42 PM
Waning Crescent, 6% visible
Pressure 30.02 in
Visibility 4.0 miles
Clouds Mostly Cloudy 1000 ft
Overcast 1400 ft
Windchill 23 °F
Dew Point 27 °F
Humidity 82%
Rainfall 0.00 in
Snow Depth Not available.
UV 0 out of 12
Pollen .10 out of 12
Air Quality Not available.
Flu Activity Not available.
SPECI KFAR 192115Z 15010KT 4SM HZ BKN010 OVC014 00/M03 A3002 RMK AO2 CIG 008V012 T00001028

More Conditions Fewer Conditions

Pressure 30.02 in
Visibility 4.0 miles
Clouds Mostly Cloudy 1000 ft
Overcast 1400 ft
Windchill 23 °F
Dew Point 27 °F
Humidity 82%
Rainfall 0.00 in
Snow Depth Not available.
UV 0 out of 12
Pollen .10 out of 12
Air Quality Not available.
Flu Activity Not available.
SPECI KFAR 192115Z 15010KT 4SM HZ BKN010 OVC014 00/M03 A3002 RMK AO2 CIG 008V012 T00001028

More Conditions Fewer Conditions

10-Day Weather Forecast

Almanac

Astronomy

Dec. 19, 2014 Rise Set
Actual Time
Civil Twilight
Nautical Twilight
Astronomical Twilight
Moon
Length of Visible Light
Length of Day
Tomorrow will be .
, % of the Moon is Illuminated

Today's Extremes

State Highs State Lows

Community

WunderPhotos

Upload Photos

1,779,057 photos uploaded!

WunderBlogs® & News

Nearby

Air Quality

  Air Quality AQ Index Pollutant
Not available.

Snow Depth

Station Depth Elevation

Earthquake Activity

City Distance Mag. Time & Date
Minimum magnitude displayed is 2.5.

Coastal Water Temperatures

Place Temperature

Nearby Weather Stations